createdAt,value
2023-01-30T00:01:42.278Z,101347.44
2023-01-30T00:03:47.924Z,101325.91
2023-01-30T00:05:51.571Z,101232.50
2023-01-30T00:07:55.049Z,101327.53
2023-01-30T00:09:58.672Z,101299.94
2023-01-30T00:12:02.072Z,101284.06
2023-01-30T00:14:05.535Z,101287.34
2023-01-30T00:16:10.572Z,101288.13
2023-01-30T00:18:14.036Z,101291.03
2023-01-30T00:20:19.403Z,101296.66
2023-01-30T00:22:22.969Z,101303.81
2023-01-30T00:24:26.442Z,101300.31
2023-01-30T00:26:30.066Z,101311.94
2023-01-30T00:28:34.120Z,101295.53
2023-01-30T00:30:37.545Z,101292.19
2023-01-30T00:32:41.470Z,101293.28
2023-01-30T00:34:44.959Z,101284.38
2023-01-30T00:36:58.911Z,101282.09
2023-01-30T00:39:09.965Z,101286.06
2023-01-30T00:41:15.295Z,101274.16
2023-01-30T00:43:38.739Z,101274.69
2023-01-30T00:46:03.797Z,101273.09
2023-01-30T00:48:08.068Z,101273.25
2023-01-30T00:50:12.414Z,101271.63
2023-01-30T00:52:18.460Z,101258.63
2023-01-30T00:54:21.947Z,101260.88
2023-01-30T00:56:25.551Z,101253.38
2023-01-30T00:58:29.229Z,101242.84
2023-01-30T01:00:33.102Z,101238.75
2023-01-30T01:02:36.664Z,101233.56
2023-01-30T01:04:43.416Z,101213.63
2023-01-30T01:06:47.882Z,101213.06
2023-01-30T01:08:52.871Z,101215.94
2023-01-30T01:10:56.577Z,101224.13
2023-01-30T01:13:00.000Z,101234.81
2023-01-30T01:15:03.915Z,101233.81
2023-01-30T01:17:07.873Z,101238.69
2023-01-30T01:19:11.309Z,101226.25
2023-01-30T01:21:20.214Z,101207.81
2023-01-30T01:23:24.160Z,101215.53
2023-01-30T01:25:29.173Z,101114.91
2023-01-30T01:27:35.489Z,101208.81
2023-01-30T01:29:38.976Z,101217.16
2023-01-30T01:31:43.474Z,101217.53
2023-01-30T01:33:47.036Z,101214.53
2023-01-30T01:35:50.479Z,101204.81
2023-01-30T01:37:54.612Z,101187.69
2023-01-30T01:40:27.120Z,101196.34
2023-01-30T01:42:37.250Z,101206.41
2023-01-30T01:45:03.706Z,101211.28
2023-01-30T01:47:10.615Z,101195.38
2023-01-30T01:49:20.871Z,101193.16
2023-01-30T01:51:30.781Z,101189.44
2023-01-30T01:53:37.422Z,101195.44
2023-01-30T01:55:44.605Z,101188.22
2023-01-30T01:57:53.400Z,101179.16
2023-01-30T02:00:04.046Z,101180.97
2023-01-30T02:02:16.932Z,101180.56
2023-01-30T02:04:46.843Z,101175.03
2023-01-30T02:06:50.877Z,101172.81
2023-01-30T02:08:59.876Z,101176.91
2023-01-30T02:11:10.536Z,101175.81
2023-01-30T02:13:15.361Z,100954.84
2023-01-30T02:15:20.950Z,101163.81
2023-01-30T02:17:24.585Z,101162.28
2023-01-30T02:19:37.153Z,101148.84
2023-01-30T02:22:08.839Z,101143.06
2023-01-30T02:24:32.422Z,101138.88
2023-01-30T02:26:58.384Z,101154.00
2023-01-30T02:29:40.473Z,101130.69
2023-01-30T02:31:51.428Z,101125.34
2023-01-30T02:34:08.543Z,101127.38
2023-01-30T02:36:21.422Z,101136.50
2023-01-30T02:38:39.671Z,101121.16
2023-01-30T02:40:50.290Z,101114.22
2023-01-30T02:43:04.911Z,101099.78
2023-01-30T02:45:17.147Z,101107.25
2023-01-30T02:47:30.741Z,101099.63
2023-01-30T02:49:40.017Z,101098.09
2023-01-30T02:51:47.374Z,101094.44
2023-01-30T02:53:52.487Z,101095.09
2023-01-30T02:55:56.530Z,101086.09
2023-01-30T02:58:01.319Z,101083.50
2023-01-30T03:00:07.374Z,101088.84
2023-01-30T03:02:28.158Z,101075.94
2023-01-30T03:04:53.661Z,101055.63
2023-01-30T03:07:21.153Z,101065.19
2023-01-30T03:09:34.178Z,101059.28
2023-01-30T03:11:48.266Z,101051.78
2023-01-30T03:13:56.926Z,101065.78
2023-01-30T03:16:13.501Z,101062.50
2023-01-30T03:18:20.161Z,101057.34
2023-01-30T03:20:23.881Z,101048.59
2023-01-30T03:22:28.140Z,101058.56
2023-01-30T03:24:33.904Z,101055.78
2023-01-30T03:26:41.944Z,101045.56
2023-01-30T03:28:49.859Z,101047.78
2023-01-30T03:30:53.604Z,101054.75
2023-01-30T03:32:57.840Z,101052.59
2023-01-30T03:35:03.407Z,101059.78
2023-01-30T03:37:07.547Z,101061.03
2023-01-30T03:39:12.719Z,101048.41
2023-01-30T03:41:17.077Z,101046.88
2023-01-30T03:43:21.071Z,101034.19
2023-01-30T03:45:24.872Z,101028.38
2023-01-30T03:47:29.206Z,101048.06
2023-01-30T03:49:34.176Z,101023.03
2023-01-30T03:51:39.141Z,101020.88
2023-01-30T03:53:42.605Z,101018.81
2023-01-30T03:55:47.888Z,101025.78
2023-01-30T03:57:56.816Z,101023.09
2023-01-30T04:00:01.974Z,101029.25
2023-01-30T04:02:08.366Z,101013.13
2023-01-30T04:04:11.969Z,101014.81
2023-01-30T04:06:15.816Z,101004.59
2023-01-30T04:08:20.804Z,100999.94
2023-01-30T04:10:25.390Z,100989.09
2023-01-30T04:12:29.354Z,100978.44
2023-01-30T04:14:35.548Z,100979.56
2023-01-30T04:16:52.629Z,100968.97
2023-01-30T04:19:21.962Z,100968.22
2023-01-30T04:21:25.581Z,100972.75
2023-01-30T04:23:30.532Z,100992.19
2023-01-30T04:25:34.927Z,100982.16
2023-01-30T04:27:44.601Z,100977.72
2023-01-30T04:29:58.369Z,100988.09
2023-01-30T04:32:02.828Z,100988.38
2023-01-30T04:34:10.390Z,100989.84
2023-01-30T04:36:14.196Z,100988.88
2023-01-30T04:38:19.151Z,100982.81
2023-01-30T04:40:24.215Z,100984.28
2023-01-30T04:42:27.835Z,100985.06
2023-01-30T04:45:00.644Z,100977.81
2023-01-30T04:47:05.681Z,100972.41
2023-01-30T04:49:10.974Z,100959.97
2023-01-30T04:51:15.901Z,100975.78
2023-01-30T04:53:21.070Z,100970.53
2023-01-30T04:55:26.011Z,100969.31
2023-01-30T04:57:29.866Z,100958.44
2023-01-30T04:59:33.308Z,100977.03
2023-01-30T05:01:41.208Z,100974.16
2023-01-30T05:03:44.689Z,100957.09
2023-01-30T05:05:48.944Z,100971.53
2023-01-30T05:07:53.123Z,100954.72
2023-01-30T05:09:56.632Z,100950.63
2023-01-30T05:12:01.591Z,100958.47
2023-01-30T05:14:05.187Z,100968.94
2023-01-30T05:16:08.991Z,100948.78
2023-01-30T05:18:12.551Z,100952.16
2023-01-30T05:20:16.150Z,100945.19
2023-01-30T05:22:19.858Z,100943.78
2023-01-30T05:24:24.061Z,100956.22
2023-01-30T05:26:27.782Z,100957.88
2023-01-30T05:28:33.329Z,100949.25
2023-01-30T05:30:37.755Z,100944.66
2023-01-30T05:32:44.372Z,100953.53
2023-01-30T05:34:49.538Z,100939.81
2023-01-30T05:36:53.404Z,100937.72
2023-01-30T05:38:56.893Z,100939.09
2023-01-30T05:41:02.129Z,100937.97
2023-01-30T05:43:05.713Z,100929.00
2023-01-30T05:45:11.739Z,100932.22
2023-01-30T05:47:15.129Z,100931.06
2023-01-30T05:49:20.019Z,100944.00
2023-01-30T05:51:25.681Z,100922.78
2023-01-30T05:53:32.126Z,100937.72
2023-01-30T05:55:35.801Z,100929.31
2023-01-30T05:57:39.194Z,100938.94
2023-01-30T05:59:42.679Z,100887.50
2023-01-30T06:01:47.514Z,100929.97
2023-01-30T06:03:51.475Z,100927.84
2023-01-30T06:05:54.998Z,100941.25
2023-01-30T06:07:58.467Z,100940.47
2023-01-30T06:10:01.951Z,100929.88
2023-01-30T06:12:07.547Z,100938.84
2023-01-30T06:14:12.126Z,100946.13
2023-01-30T06:16:17.549Z,100932.25
2023-01-30T06:18:22.555Z,100945.47
2023-01-30T06:20:25.982Z,100948.22
2023-01-30T06:22:30.620Z,100951.13
2023-01-30T06:24:34.233Z,100947.97
2023-01-30T06:26:38.176Z,100946.69
2023-01-30T06:28:42.763Z,100963.41
2023-01-30T06:30:46.279Z,100969.97
2023-01-30T06:32:52.034Z,100957.94
2023-01-30T06:34:56.759Z,100929.81
2023-01-30T06:37:00.876Z,100959.47
2023-01-30T06:39:05.795Z,100957.03
2023-01-30T06:41:09.460Z,100942.97
2023-01-30T06:43:13.024Z,100963.81
2023-01-30T06:45:18.451Z,100944.47
2023-01-30T06:47:22.227Z,100943.47
2023-01-30T06:49:25.600Z,100947.75
2023-01-30T06:51:32.503Z,100960.75
2023-01-30T06:53:36.635Z,100979.66
2023-01-30T06:55:40.076Z,100968.28
2023-01-30T06:57:44.123Z,100979.25
2023-01-30T06:59:47.660Z,100984.41
2023-01-30T07:01:52.530Z,100979.56
2023-01-30T07:03:56.060Z,100983.94
2023-01-30T07:05:59.698Z,100981.56
2023-01-30T07:08:04.615Z,100991.56
2023-01-30T07:10:14.208Z,100998.22
2023-01-30T07:12:17.661Z,100987.94
2023-01-30T07:14:21.093Z,100994.16
2023-01-30T07:16:29.209Z,100987.19
2023-01-30T07:18:32.807Z,100989.25
2023-01-30T07:20:36.478Z,100980.81
2023-01-30T07:22:40.042Z,100984.97
2023-01-30T07:24:44.926Z,100987.66
2023-01-30T07:26:49.288Z,100971.16
2023-01-30T07:28:52.845Z,100979.03
2023-01-30T07:30:56.426Z,100987.53
2023-01-30T07:33:01.484Z,100990.38
2023-01-30T07:35:06.094Z,100975.50
2023-01-30T07:37:09.740Z,100986.97
2023-01-30T07:39:13.153Z,100984.38
2023-01-30T07:41:18.104Z,100981.50
2023-01-30T07:43:22.040Z,100990.00
2023-01-30T07:45:25.822Z,100888.25
2023-01-30T07:47:30.827Z,100991.34
2023-01-30T07:49:34.250Z,100988.09
2023-01-30T07:51:37.766Z,100989.06
2023-01-30T07:53:41.785Z,100941.81
2023-01-30T07:55:45.557Z,100992.53
2023-01-30T07:57:50.764Z,101000.88
2023-01-30T07:59:54.217Z,100999.72
2023-01-30T08:01:58.703Z,100999.03
2023-01-30T08:04:03.106Z,100999.22
2023-01-30T08:06:07.952Z,100994.44
2023-01-30T08:08:11.367Z,100991.50
2023-01-30T08:10:14.836Z,100985.03
2023-01-30T08:12:18.397Z,100998.75
2023-01-30T08:14:23.327Z,100992.44
2023-01-30T08:16:27.057Z,101011.81
2023-01-30T08:18:31.279Z,101004.59
2023-01-30T08:20:35.068Z,101012.13
2023-01-30T08:22:38.511Z,101010.22
2023-01-30T08:24:42.336Z,101021.19
2023-01-30T08:26:48.842Z,101020.00
2023-01-30T08:28:52.393Z,101019.53
2023-01-30T08:30:58.298Z,101039.91
2023-01-30T08:33:02.187Z,101028.25
2023-01-30T08:35:06.958Z,101028.56
2023-01-30T08:37:10.878Z,101029.91
2023-01-30T08:39:14.969Z,101042.63
2023-01-30T08:41:18.472Z,101015.25
2023-01-30T08:43:22.425Z,101017.69
2023-01-30T08:45:26.009Z,101027.56
2023-01-30T08:47:31.561Z,101026.81
2023-01-30T08:49:35.225Z,101025.56
2023-01-30T08:51:39.830Z,101030.13
2023-01-30T08:53:43.350Z,101032.72
2023-01-30T08:55:47.160Z,101038.22
2023-01-30T08:57:51.333Z,101029.34
2023-01-30T08:59:54.886Z,101036.59
2023-01-30T09:01:58.348Z,101045.63
2023-01-30T09:04:03.227Z,101049.19
2023-01-30T09:06:06.931Z,101054.19
2023-01-30T09:08:10.478Z,101054.88
2023-01-30T09:10:15.003Z,101055.94
2023-01-30T09:12:18.496Z,101049.47
2023-01-30T09:14:22.343Z,101054.06
2023-01-30T09:16:26.849Z,101060.66
2023-01-30T09:18:30.493Z,101071.91
2023-01-30T09:20:35.527Z,101066.22
2023-01-30T09:22:38.994Z,101066.81
2023-01-30T09:24:42.442Z,101058.75
2023-01-30T09:26:46.096Z,101052.81
2023-01-30T09:28:49.646Z,101046.34
2023-01-30T09:30:53.518Z,101046.06
2023-01-30T09:32:57.095Z,101067.22
2023-01-30T09:35:00.591Z,101050.81
2023-01-30T09:37:06.868Z,101036.59
2023-01-30T09:39:10.821Z,101042.44
2023-01-30T09:41:37.225Z,101063.38
2023-01-30T09:43:55.004Z,101061.00
2023-01-30T09:46:09.650Z,101060.25
2023-01-30T09:48:22.171Z,101067.84
2023-01-30T09:50:48.993Z,101068.78
2023-01-30T09:53:01.414Z,101064.69
2023-01-30T09:55:20.965Z,101054.94
2023-01-30T09:57:26.679Z,101067.94
2023-01-30T09:59:37.951Z,101067.13
2023-01-30T10:01:51.595Z,101078.59
2023-01-30T10:04:13.102Z,101089.97
2023-01-30T10:06:17.311Z,101059.91
2023-01-30T10:08:43.807Z,101074.28
2023-01-30T10:11:00.873Z,101077.84
2023-01-30T10:13:26.429Z,101075.75
2023-01-30T10:15:37.593Z,101082.31
2023-01-30T10:17:54.860Z,101098.22
2023-01-30T10:20:26.744Z,101091.41
2023-01-30T10:22:43.934Z,101014.38
2023-01-30T10:25:00.931Z,101092.72
2023-01-30T10:27:10.463Z,100998.91
2023-01-30T10:29:19.712Z,101115.16
2023-01-30T10:31:27.491Z,101101.84
2023-01-30T10:33:35.762Z,101105.66
2023-01-30T10:35:42.928Z,101110.84
2023-01-30T10:37:53.825Z,101091.81
2023-01-30T10:40:07.317Z,101095.53
2023-01-30T10:42:13.691Z,101102.41
2023-01-30T10:44:19.075Z,101104.13
2023-01-30T10:46:37.832Z,101104.34
2023-01-30T10:48:56.114Z,101104.88
2023-01-30T10:51:06.888Z,101108.28
2023-01-30T10:53:18.762Z,101098.94
2023-01-30T10:55:37.664Z,101119.47
2023-01-30T10:57:56.439Z,101103.03
2023-01-30T11:00:05.112Z,101111.69
2023-01-30T11:02:22.491Z,101106.88
2023-01-30T11:04:32.303Z,101108.72
2023-01-30T11:06:36.618Z,101102.03
2023-01-30T11:08:41.014Z,101123.69
2023-01-30T11:10:46.172Z,101112.72
2023-01-30T11:12:54.025Z,101114.38
2023-01-30T11:14:59.878Z,101106.94
2023-01-30T11:17:03.871Z,101118.16
2023-01-30T11:19:23.660Z,101111.59
2023-01-30T11:21:42.353Z,101111.47
2023-01-30T11:23:47.927Z,101013.19
2023-01-30T11:26:10.161Z,101113.59
2023-01-30T11:28:17.500Z,101112.47
2023-01-30T11:30:23.292Z,101118.78
2023-01-30T11:32:29.181Z,101133.16
2023-01-30T11:34:33.663Z,101118.63
2023-01-30T11:36:38.187Z,101112.13
2023-01-30T11:38:58.266Z,101115.09
2023-01-30T11:41:14.634Z,101118.78
2023-01-30T11:43:18.429Z,101114.50
2023-01-30T11:45:30.146Z,101108.22
2023-01-30T11:47:34.027Z,101108.41
2023-01-30T11:49:46.995Z,101115.25
2023-01-30T11:52:07.820Z,101113.41
2023-01-30T11:54:16.028Z,101103.31
2023-01-30T11:56:25.912Z,101102.31
2023-01-30T11:58:32.932Z,101108.97
2023-01-30T12:00:41.052Z,101109.50
2023-01-30T12:02:46.357Z,101095.19
2023-01-30T12:04:54.055Z,101111.22
2023-01-30T12:07:07.580Z,101111.75
2023-01-30T12:09:34.448Z,101114.03
2023-01-30T12:11:46.039Z,101111.00
2023-01-30T12:13:51.286Z,101145.75
2023-01-30T12:16:05.595Z,101119.81
2023-01-30T12:18:17.435Z,101122.41
2023-01-30T12:20:29.638Z,101122.84
2023-01-30T12:22:40.154Z,101116.19
2023-01-30T12:24:47.548Z,101114.63
2023-01-30T12:26:57.546Z,101117.94
2023-01-30T12:29:09.723Z,101111.75
2023-01-30T12:31:20.184Z,101104.81
2023-01-30T12:33:27.771Z,101109.06
2023-01-30T12:35:45.445Z,101126.09
2023-01-30T12:38:03.376Z,101126.50
2023-01-30T12:40:21.591Z,101125.66
2023-01-30T12:42:52.172Z,101120.53
2023-01-30T12:45:05.971Z,101111.06
2023-01-30T12:47:25.199Z,101117.94
2023-01-30T12:49:44.213Z,101024.97
2023-01-30T12:52:04.794Z,101116.84
2023-01-30T12:54:21.244Z,101130.38
2023-01-30T12:56:53.615Z,101129.13
2023-01-30T12:59:05.990Z,101119.56
2023-01-30T13:01:24.473Z,101120.09
2023-01-30T13:03:40.897Z,101126.75
2023-01-30T13:05:49.241Z,101128.88
2023-01-30T13:08:07.497Z,101120.59
2023-01-30T13:10:18.637Z,101130.53
2023-01-30T13:12:35.465Z,101124.03
2023-01-30T13:14:48.639Z,101136.63
2023-01-30T13:17:11.676Z,101143.50
2023-01-30T13:19:25.509Z,101141.03
2023-01-30T13:21:38.112Z,101144.06
2023-01-30T13:24:05.120Z,101154.06
2023-01-30T13:26:11.632Z,101165.97
2023-01-30T13:28:18.781Z,101166.25
2023-01-30T13:30:25.615Z,101166.16
2023-01-30T13:32:36.882Z,101167.66
2023-01-30T13:34:44.750Z,101159.97
2023-01-30T13:36:55.460Z,101172.22
2023-01-30T13:39:02.917Z,101171.94
2023-01-30T13:41:07.620Z,101180.81
2023-01-30T13:43:20.952Z,101187.66
2023-01-30T13:45:29.538Z,101194.13
2023-01-30T13:47:45.010Z,101187.16
2023-01-30T13:49:58.672Z,101189.66
2023-01-30T13:52:08.108Z,101195.75
2023-01-30T13:54:24.744Z,101197.16
2023-01-30T13:56:41.380Z,101203.38
2023-01-30T13:58:50.852Z,101203.66
2023-01-30T14:00:56.652Z,101203.13
2023-01-30T14:03:31.461Z,101219.53
2023-01-30T14:06:07.374Z,101215.84
2023-01-30T14:08:15.115Z,101225.09
2023-01-30T14:10:23.733Z,101224.94
2023-01-30T14:12:33.812Z,101218.81
2023-01-30T14:14:40.050Z,101217.16
2023-01-30T14:16:49.854Z,101218.53
2023-01-30T14:18:53.826Z,101216.44
2023-01-30T14:21:14.966Z,101233.13
2023-01-30T14:23:25.667Z,101232.03
2023-01-30T14:25:46.020Z,101223.06
2023-01-30T14:27:52.933Z,101233.97
2023-01-30T14:29:57.566Z,101227.13
2023-01-30T14:32:02.904Z,101230.91
2023-01-30T14:34:49.140Z,101231.13
2023-01-30T14:36:54.374Z,101237.78
2023-01-30T14:39:18.830Z,101239.66
2023-01-30T14:41:27.863Z,101234.63
2023-01-30T14:43:38.421Z,101151.53
2023-01-30T14:45:49.227Z,101241.66
2023-01-30T14:48:28.855Z,101257.31
2023-01-30T14:50:33.832Z,101266.19
2023-01-30T14:52:41.476Z,101263.81
2023-01-30T14:54:51.440Z,101264.75
2023-01-30T14:56:58.642Z,101188.50
2023-01-30T14:59:06.385Z,101265.66
2023-01-30T15:01:10.356Z,101283.41
2023-01-30T15:03:21.043Z,101283.16
2023-01-30T15:05:31.611Z,101153.19
2023-01-30T15:07:42.950Z,101167.09
2023-01-30T15:09:54.097Z,101210.63
2023-01-30T15:12:17.092Z,101292.31
2023-01-30T15:14:28.556Z,101284.63
2023-01-30T15:16:47.535Z,101300.09
2023-01-30T15:19:12.400Z,101298.47
2023-01-30T15:21:37.493Z,101313.81
2023-01-30T15:23:57.433Z,101311.97
2023-01-30T15:26:13.874Z,101313.31
2023-01-30T15:28:30.905Z,101314.59
2023-01-30T15:30:57.276Z,101334.41
2023-01-30T15:33:22.827Z,101349.78
2023-01-30T15:35:31.669Z,101333.38
2023-01-30T15:37:37.466Z,101348.50
2023-01-30T15:39:41.241Z,101347.13
2023-01-30T15:41:45.120Z,101353.63
2023-01-30T15:44:34.437Z,101351.94
2023-01-30T15:46:48.235Z,101358.22
2023-01-30T15:49:07.781Z,101357.34
2023-01-30T15:51:16.505Z,101359.56
2023-01-30T15:53:27.439Z,101350.78
2023-01-30T15:55:34.189Z,101371.34
2023-01-30T15:57:40.743Z,101382.97
2023-01-30T15:59:45.153Z,101373.75
2023-01-30T16:01:49.506Z,101403.84
2023-01-30T16:03:53.961Z,101378.69
2023-01-30T16:05:58.742Z,101386.31
2023-01-30T16:08:19.147Z,101389.06
2023-01-30T16:10:24.937Z,101390.03
2023-01-30T16:12:30.838Z,101404.53
2023-01-30T16:14:34.702Z,101403.53
2023-01-30T16:16:38.796Z,101404.47
2023-01-30T16:18:48.816Z,101408.63
2023-01-30T16:21:02.135Z,101413.91
2023-01-30T16:23:21.254Z,101408.19
2023-01-30T16:25:29.801Z,101424.34
2023-01-30T16:27:37.268Z,101432.44
2023-01-30T16:29:51.108Z,101436.56
2023-01-30T16:31:55.922Z,101427.41
2023-01-30T16:34:00.023Z,101422.06
2023-01-30T16:36:04.773Z,101427.84
2023-01-30T16:38:36.398Z,101430.91
2023-01-30T16:40:47.231Z,101429.19
2023-01-30T16:42:58.827Z,101436.03
2023-01-30T16:45:30.195Z,101438.63
2023-01-30T16:47:34.675Z,101442.22
2023-01-30T16:49:45.872Z,101457.25
2023-01-30T16:51:51.753Z,101427.19
2023-01-30T16:54:02.472Z,101348.34
2023-01-30T16:56:10.855Z,101460.50
2023-01-30T16:58:18.378Z,101460.00
2023-01-30T17:00:24.777Z,101463.66
2023-01-30T17:02:33.987Z,101464.94
2023-01-30T17:04:41.991Z,101471.75
2023-01-30T17:06:54.349Z,101479.22
2023-01-30T17:08:59.523Z,101483.94
2023-01-30T17:11:03.714Z,101477.44
2023-01-30T17:13:31.771Z,101486.09
2023-01-30T17:15:36.815Z,101486.28
2023-01-30T17:17:40.609Z,101485.94
2023-01-30T17:19:48.501Z,101493.72
2023-01-30T17:21:54.657Z,101506.53
2023-01-30T17:24:02.678Z,101500.59
2023-01-30T17:26:06.447Z,101510.81
2023-01-30T17:28:19.642Z,101509.34
2023-01-30T17:30:23.249Z,101505.75
2023-01-30T17:32:26.847Z,101511.56
2023-01-30T17:34:30.315Z,101518.84
2023-01-30T17:36:33.886Z,101513.25
2023-01-30T17:38:37.367Z,101516.44
2023-01-30T17:40:43.156Z,101518.34
2023-01-30T17:42:47.874Z,101523.16
2023-01-30T17:44:51.364Z,101528.56
2023-01-30T17:46:54.724Z,101531.56
2023-01-30T17:48:58.351Z,101532.00
2023-01-30T17:51:02.087Z,101532.97
2023-01-30T17:53:05.722Z,101539.38
2023-01-30T17:55:13.050Z,101543.81
2023-01-30T17:57:17.961Z,101536.13
2023-01-30T17:59:22.666Z,101547.13
2023-01-30T18:01:26.411Z,101539.50
2023-01-30T18:03:29.974Z,101510.88
2023-01-30T18:05:33.503Z,101554.97
2023-01-30T18:07:37.089Z,101565.63
2023-01-30T18:09:40.559Z,101558.72
2023-01-30T18:11:44.133Z,101560.16
2023-01-30T18:13:48.915Z,101568.22
2023-01-30T18:15:57.464Z,101569.00
2023-01-30T18:18:00.872Z,101572.81
2023-01-30T18:20:04.437Z,101585.28
2023-01-30T18:22:07.865Z,101579.13
2023-01-30T18:24:11.659Z,101587.25
2023-01-30T18:26:15.160Z,101544.06
2023-01-30T18:28:18.952Z,101587.81
2023-01-30T18:30:24.998Z,101591.50
2023-01-30T18:32:28.671Z,101592.22
2023-01-30T18:34:32.351Z,101591.44
2023-01-30T18:36:36.606Z,101596.53
2023-01-30T18:38:40.164Z,101603.75
2023-01-30T18:40:43.599Z,101595.00
2023-01-30T18:42:47.272Z,101591.84
2023-01-30T18:44:50.886Z,101528.22
2023-01-30T18:46:55.731Z,101598.75
2023-01-30T18:48:59.579Z,101594.13
2023-01-30T18:51:11.784Z,101596.28
2023-01-30T18:53:15.308Z,101598.97
2023-01-30T18:55:19.734Z,101586.00
2023-01-30T18:57:23.101Z,101600.94
2023-01-30T18:59:26.560Z,101595.56
2023-01-30T19:01:31.977Z,101599.03
2023-01-30T19:03:36.919Z,101606.66
2023-01-30T19:05:40.333Z,101609.13
2023-01-30T19:07:43.774Z,101616.81
2023-01-30T19:09:47.809Z,101619.22
2023-01-30T19:12:08.550Z,101627.75
2023-01-30T19:14:14.314Z,101618.63
2023-01-30T19:16:17.848Z,101614.53
2023-01-30T19:18:21.282Z,101631.88
2023-01-30T19:20:26.706Z,101623.28
2023-01-30T19:22:30.396Z,101624.00
2023-01-30T19:24:33.785Z,101620.69
2023-01-30T19:26:37.229Z,101641.25
2023-01-30T19:28:41.677Z,101642.31
2023-01-30T19:30:45.139Z,101638.84
2023-01-30T19:32:48.881Z,101651.88
2023-01-30T19:34:52.505Z,101653.31
2023-01-30T19:36:57.320Z,101654.41
2023-01-30T19:39:01.670Z,101662.69
2023-01-30T19:41:05.375Z,101640.00
2023-01-30T19:43:11.146Z,101659.47
2023-01-30T19:45:14.960Z,101670.03
2023-01-30T19:47:21.755Z,101673.34
2023-01-30T19:49:25.205Z,101674.06
2023-01-30T19:51:30.169Z,101567.31
2023-01-30T19:53:34.926Z,101679.41
2023-01-30T19:55:38.421Z,101678.47
2023-01-30T19:57:41.840Z,101672.31
2023-01-30T19:59:45.375Z,101681.88
2023-01-30T20:01:49.281Z,101677.94
2023-01-30T20:03:52.736Z,101687.81
2023-01-30T20:06:07.600Z,101690.81
2023-01-30T20:08:25.517Z,101691.78
2023-01-30T20:10:36.295Z,101687.75
2023-01-30T20:12:39.692Z,101685.72
2023-01-30T20:14:43.057Z,101691.25
2023-01-30T20:16:46.592Z,101694.56
2023-01-30T20:18:56.131Z,101702.53
2023-01-30T20:21:06.104Z,101705.13
2023-01-30T20:23:09.669Z,101694.50
2023-01-30T20:25:13.086Z,101700.00
2023-01-30T20:27:17.844Z,101703.91
2023-01-30T20:29:21.455Z,101717.75
2023-01-30T20:31:27.952Z,101713.25
2023-01-30T20:33:32.392Z,101645.88
2023-01-30T20:35:35.834Z,101721.50
2023-01-30T20:37:39.281Z,101728.81
2023-01-30T20:39:42.718Z,101722.88
2023-01-30T20:41:46.193Z,101726.66
2023-01-30T20:43:53.064Z,101713.06
2023-01-30T20:46:04.668Z,101719.41
2023-01-30T20:48:08.183Z,101722.22
2023-01-30T20:50:13.720Z,101720.81
2023-01-30T20:52:17.389Z,101722.78
2023-01-30T20:54:23.131Z,101719.72
2023-01-30T20:56:31.779Z,101734.53
2023-01-30T20:58:35.445Z,101726.25
2023-01-30T21:00:40.668Z,101726.78
2023-01-30T21:02:48.403Z,101727.50
2023-01-30T21:04:51.982Z,101739.75
2023-01-30T21:06:55.614Z,101739.56
2023-01-30T21:08:59.363Z,101736.94
2023-01-30T21:11:07.801Z,101672.13
2023-01-30T21:13:11.185Z,101758.88
2023-01-30T21:15:14.660Z,101747.72
2023-01-30T21:17:19.603Z,101728.34
2023-01-30T21:19:22.998Z,101745.19
2023-01-30T21:21:28.700Z,101750.88
2023-01-30T21:23:32.559Z,101751.00
2023-01-30T21:25:36.142Z,101758.91
2023-01-30T21:27:40.734Z,101748.59
2023-01-30T21:29:44.180Z,101742.63
2023-01-30T21:31:48.058Z,101745.13
2023-01-30T21:33:53.468Z,101753.78
2023-01-30T21:35:59.623Z,101754.88
2023-01-30T21:38:20.711Z,101754.56
2023-01-30T21:40:41.715Z,101758.78
2023-01-30T21:43:04.752Z,101762.09
2023-01-30T21:45:09.328Z,101770.03
2023-01-30T21:47:13.837Z,101769.66
2023-01-30T21:49:19.980Z,101774.13
2023-01-30T21:51:25.332Z,101781.53
2023-01-30T21:53:28.713Z,101775.63
2023-01-30T21:55:32.303Z,101659.13
2023-01-30T21:57:35.799Z,101771.72
2023-01-30T21:59:39.971Z,101778.75
2023-01-30T22:01:44.032Z,101784.19
2023-01-30T22:03:47.646Z,101782.88
2023-01-30T22:05:52.451Z,101780.78
2023-01-30T22:07:55.829Z,101787.47
2023-01-30T22:10:01.424Z,101786.38
2023-01-30T22:12:05.259Z,101796.84
2023-01-30T22:14:08.667Z,101791.69
2023-01-30T22:16:14.857Z,101795.25
2023-01-30T22:18:18.251Z,101791.69
2023-01-30T22:20:21.622Z,101792.28
2023-01-30T22:22:27.798Z,101806.38
2023-01-30T22:24:31.462Z,101800.56
2023-01-30T22:26:35.224Z,101764.88
2023-01-30T22:28:39.715Z,101799.22
2023-01-30T22:30:43.104Z,101806.00
2023-01-30T22:32:46.469Z,101802.09
2023-01-30T22:34:49.892Z,101765.19
2023-01-30T22:36:53.502Z,101801.03
2023-01-30T22:38:58.581Z,101813.38
2023-01-30T22:41:04.058Z,101812.41
2023-01-30T22:43:07.461Z,101813.50
2023-01-30T22:45:11.955Z,101816.56
2023-01-30T22:47:18.046Z,101817.78
2023-01-30T22:49:22.107Z,101818.88
2023-01-30T22:51:26.816Z,101820.03
2023-01-30T22:53:34.453Z,101820.53
2023-01-30T22:55:39.344Z,101814.06
2023-01-30T22:57:42.842Z,101818.44
2023-01-30T22:59:46.228Z,101824.22
2023-01-30T23:01:52.517Z,101786.13
2023-01-30T23:03:58.241Z,101822.75
2023-01-30T23:06:03.474Z,101823.72
2023-01-30T23:08:06.891Z,101818.34
2023-01-30T23:10:11.497Z,101821.91
2023-01-30T23:12:33.817Z,101791.75
2023-01-30T23:14:38.377Z,101817.34
2023-01-30T23:16:43.840Z,101721.03
2023-01-30T23:18:55.277Z,101823.59
2023-01-30T23:20:59.200Z,101816.28
2023-01-30T23:23:03.180Z,101804.00
2023-01-30T23:25:08.936Z,101810.78
2023-01-30T23:27:12.405Z,101822.31
2023-01-30T23:29:18.911Z,101817.84
2023-01-30T23:31:24.224Z,101821.66
2023-01-30T23:33:27.909Z,101812.06
2023-01-30T23:35:31.470Z,101815.16
2023-01-30T23:37:52.491Z,101816.09
2023-01-30T23:39:55.857Z,101823.34
2023-01-30T23:42:00.602Z,101819.44
2023-01-30T23:44:04.507Z,101814.34
2023-01-30T23:46:15.589Z,101721.22
2023-01-30T23:48:19.061Z,101814.28
2023-01-30T23:50:22.498Z,101808.19
2023-01-30T23:52:25.873Z,101818.03
2023-01-30T23:54:29.466Z,101813.16
2023-01-30T23:56:35.510Z,101820.75
2023-01-30T23:58:39.970Z,101818.75
